Time;durP1;ratioP1;P1;durP2;ratioP2;P2;SDS_P1;SDS_P2;PMS_P1;PMS_P2;Temp;Humidity;BMP_temperature;BMP_pressure;BME280_temperature;BME280_humidity;BME280_pressure;Samples;Min_cycle;Max_cycle;Signal;HPM_P1;HPM_P2
2023/09/20 00:01:52;;;;;;;4.70;2.28;;;17.00;99.90;;;;;;6268510;22;20027;-44
2023/09/20 00:04:21;;;;;;;5.57;2.17;;;16.90;99.90;;;;;;6269026;22;20103;-45
2023/09/20 00:06:47;;;;;;;6.72;2.58;;;17.00;99.90;;;;;;6267761;22;20070;-43
2023/09/20 00:09:14;;;;;;;9.45;2.45;;;17.00;99.90;;;;;;6266808;22;20012;-43
2023/09/20 00:11:40;;;;;;;5.32;2.40;;;17.00;99.90;;;;;;6270136;22;20062;-45
2023/09/20 00:14:06;;;;;;;6.95;2.20;;;17.00;99.90;;;;;;6269992;22;20027;-43
2023/09/20 00:16:32;;;;;;;8.35;2.78;;;17.00;99.90;;;;;;6270105;22;20012;-44
2023/09/20 00:18:58;;;;;;;6.25;2.63;;;17.00;99.90;;;;;;6270253;22;20041;-44
2023/09/20 00:21:23;;;;;;;5.50;2.20;;;16.90;99.90;;;;;;6270449;22;20047;-44
2023/09/20 00:23:49;;;;;;;5.40;2.45;;;16.90;99.90;;;;;;6269245;22;20020;-43
2023/09/20 00:26:17;;;;;;;7.03;2.67;;;17.00;99.90;;;;;;6270657;22;20018;-46
2023/09/20 00:28:48;;;;;;;6.55;2.35;;;17.00;99.90;;;;;;6270573;22;20016;-44
2023/09/20 00:31:15;;;;;;;5.50;2.58;;;17.00;99.90;;;;;;6270199;22;20012;-44
2023/09/20 00:33:41;;;;;;;7.27;2.53;;;17.00;99.90;;;;;;6270283;22;20061;-44
2023/09/20 00:36:07;;;;;;;7.75;2.85;;;17.00;99.90;;;;;;6270308;22;20637;-45
2023/09/20 00:38:34;;;;;;;8.43;2.30;;;17.00;99.90;;;;;;6270493;22;20012;-43
2023/09/20 00:41:05;;;;;;;9.65;2.65;;;17.00;99.90;;;;;;6270686;22;20016;-43
2023/09/20 00:43:31;;;;;;;8.57;2.85;;;17.00;99.90;;;;;;6270056;22;20045;-44
2023/09/20 00:45:59;;;;;;;5.57;2.80;;;17.00;99.90;;;;;;6270856;22;20091;-44
2023/09/20 00:48:25;;;;;;;8.43;2.95;;;17.10;99.90;;;;;;6269894;22;20543;-44
2023/09/20 00:50:51;;;;;;;7.05;3.20;;;17.10;99.90;;;;;;6270463;22;20020;-43
2023/09/20 00:53:17;;;;;;;6.70;2.55;;;17.10;99.90;;;;;;6270154;22;20026;-44
2023/09/20 00:55:43;;;;;;;7.22;3.17;;;17.10;99.90;;;;;;6268422;22;20499;-43
2023/09/20 00:58:17;;;;;;;5.88;2.30;;;17.10;99.90;;;;;;6267422;22;20030;-43
2023/09/20 01:00:46;;;;;;;7.68;2.28;;;17.10;99.90;;;;;;6270912;22;20026;-44
2023/09/20 01:03:17;;;;;;;7.43;2.58;;;17.10;99.90;;;;;;6269954;22;20015;-44
2023/09/20 01:05:42;;;;;;;5.60;2.60;;;17.20;99.90;;;;;;6268106;22;20069;-43
2023/09/20 01:08:08;;;;;;;10.02;2.92;;;17.10;99.90;;;;;;6270519;22;20090;-43
2023/09/20 01:10:38;;;;;;;6.88;2.72;;;17.20;99.90;;;;;;6268625;22;20020;-43
2023/09/20 01:13:11;;;;;;;4.68;2.47;;;17.20;99.90;;;;;;6270987;22;20012;-44
2023/09/20 01:15:37;;;;;;;5.55;2.55;;;17.20;99.90;;;;;;6271420;22;20487;-44
2023/09/20 01:18:04;;;;;;;7.50;2.65;;;17.20;99.90;;;;;;6271692;22;20016;-44
2023/09/20 01:20:32;;;;;;;5.18;2.40;;;17.20;99.90;;;;;;6272466;22;20011;-45
2023/09/20 01:22:58;;;;;;;6.88;2.63;;;17.20;99.90;;;;;;6270275;22;20081;-44
2023/09/20 01:25:25;;;;;;;7.72;2.80;;;17.20;99.90;;;;;;6271923;22;20083;-43
2023/09/20 01:27:56;;;;;;;9.10;2.72;;;17.20;99.90;;;;;;6271521;22;20020;-43
2023/09/20 01:30:25;;;;;;;6.50;2.55;;;17.20;99.90;;;;;;6272819;22;20022;-43
2023/09/20 01:32:52;;;;;;;7.97;2.50;;;17.20;99.90;;;;;;6275428;22;20019;-43
2023/09/20 01:35:19;;;;;;;9.02;2.80;;;17.20;99.90;;;;;;6272337;22;20027;-43
2023/09/20 01:37:45;;;;;;;8.05;2.70;;;17.20;99.90;;;;;;6271689;22;20061;-43
2023/09/20 01:40:16;;;;;;;7.75;2.70;;;17.20;99.90;;;;;;6270160;22;20019;-42
2023/09/20 01:42:43;;;;;;;8.30;2.88;;;17.20;99.90;;;;;;6270658;22;20027;-43
2023/09/20 01:45:16;;;;;;;8.03;2.67;;;17.20;99.90;;;;;;6272164;22;20015;-43
2023/09/20 01:47:47;;;;;;;6.53;2.53;;;17.20;99.90;;;;;;6271506;22;20511;-42
2023/09/20 01:50:19;;;;;;;7.50;2.80;;;17.20;99.90;;;;;;6269055;22;20012;-44
2023/09/20 01:52:49;;;;;;;6.38;2.70;;;17.20;99.90;;;;;;6271488;22;20043;-43
2023/09/20 01:55:17;;;;;;;6.90;2.20;;;17.20;99.90;;;;;;6269916;22;20019;-42
2023/09/20 01:57:46;;;;;;;;;;;17.20;99.90;;;;;;6271054;22;20079;-43
2023/09/20 02:00:22;;;;;;;6.35;2.38;;;17.30;99.90;;;;;;6272658;22;19915;-44
2023/09/20 02:02:57;;;;;;;8.50;2.67;;;17.30;99.90;;;;;;6275536;22;20020;-43
2023/09/20 02:05:24;;;;;;;8.02;2.45;;;17.30;99.90;;;;;;6277712;22;20098;-44
2023/09/20 02:07:52;;;;;;;6.40;2.50;;;17.30;99.90;;;;;;6277092;22;20406;-42
2023/09/20 02:10:19;;;;;;;8.45;3.03;;;17.20;99.90;;;;;;6277467;22;20016;-44
2023/09/20 02:12:51;;;;;;;6.15;2.67;;;17.30;99.90;;;;;;6277264;22;20018;-44
2023/09/20 02:15:17;;;;;;;6.80;2.67;;;17.20;99.90;;;;;;6272689;22;20023;-43
2023/09/20 02:17:46;;;;;;;7.40;2.65;;;17.30;99.90;;;;;;6269830;22;20015;-44
2023/09/20 02:20:19;;;;;;;6.70;2.38;;;17.20;99.90;;;;;;6244014;22;20023;-43
2023/09/20 02:22:46;;;;;;;5.47;2.50;;;17.20;99.90;;;;;;6271071;22;20026;-44
2023/09/20 02:25:12;;;;;;;;;;;17.20;99.90;;;;;;6271665;22;20018;-44
2023/09/20 02:27:43;;;;;;;7.93;2.70;;;17.20;99.90;;;;;;6270688;22;19915;-43
2023/09/20 02:30:12;;;;;;;8.48;2.53;;;17.20;99.90;;;;;;6271144;22;20019;-45
2023/09/20 02:32:38;;;;;;;7.10;2.53;;;17.20;99.90;;;;;;6270653;22;20016;-44
2023/09/20 02:35:06;;;;;;;8.52;2.45;;;17.20;99.90;;;;;;6271864;22;20030;-42
2023/09/20 02:37:32;;;;;;;9.65;2.90;;;17.20;99.90;;;;;;6271236;22;20025;-44
2023/09/20 02:39:57;;;;;;;9.02;2.90;;;17.20;99.90;;;;;;6271557;22;20079;-43
2023/09/20 02:42:26;;;;;;;7.25;2.50;;;17.20;99.90;;;;;;6271327;22;20575;-44
2023/09/20 02:44:53;;;;;;;7.50;2.75;;;17.20;99.90;;;;;;6271615;22;20115;-43
2023/09/20 02:47:19;;;;;;;6.25;2.70;;;17.10;99.90;;;;;;6269309;22;20020;-45
2023/09/20 02:49:50;;;;;;;8.02;2.80;;;17.20;99.90;;;;;;6270821;22;20418;-43
2023/09/20 02:52:19;;;;;;;6.57;3.00;;;17.10;99.90;;;;;;6271375;22;20023;-43
2023/09/20 02:54:45;;;;;;;7.18;2.53;;;17.10;99.90;;;;;;6271962;22;20015;-43
2023/09/20 02:57:11;;;;;;;7.70;2.78;;;17.10;99.90;;;;;;6270295;22;20338;-44
2023/09/20 02:59:38;;;;;;;7.22;2.50;;;17.10;99.90;;;;;;6271217;22;20082;-42
2023/09/20 03:02:05;;;;;;;7.70;2.72;;;17.10;99.90;;;;;;6272190;22;20432;-45
2023/09/20 03:04:30;;;;;;;8.27;2.97;;;17.10;99.90;;;;;;6272193;22;20020;-43
2023/09/20 03:06:56;;;;;;;6.47;2.47;;;17.00;99.90;;;;;;6273287;22;20149;-43
2023/09/20 03:09:24;;;;;;;8.93;2.67;;;17.10;99.90;;;;;;6270741;22;20022;-42
2023/09/20 03:11:51;;;;;;;4.90;2.40;;;17.00;99.90;;;;;;6271191;22;20080;-42
2023/09/20 03:14:17;;;;;;;7.22;2.60;;;17.00;99.90;;;;;;6270852;22;20027;-44
2023/09/20 03:16:44;;;;;;;5.93;2.83;;;17.00;99.90;;;;;;6269504;22;20018;-44
2023/09/20 03:19:10;;;;;;;8.05;2.28;;;17.00;99.90;;;;;;6243182;22;20440;-45
2023/09/20 03:21:36;;;;;;;10.48;2.88;;;17.00;99.90;;;;;;6271263;22;20069;-43
2023/09/20 03:24:05;;;;;;;8.63;3.15;;;17.00;99.90;;;;;;6270414;22;20007;-43
2023/09/20 03:26:32;;;;;;;6.88;2.60;;;17.00;99.90;;;;;;6271393;22;20059;-43
2023/09/20 03:28:57;;;;;;;9.38;2.95;;;16.90;99.90;;;;;;6270308;22;20030;-44
2023/09/20 03:31:25;;;;;;;7.85;2.83;;;16.90;99.90;;;;;;6269775;22;20011;-43
2023/09/20 03:33:51;;;;;;;7.32;2.72;;;16.80;99.90;;;;;;6271116;22;20023;-43
2023/09/20 03:36:17;;;;;;;8.05;2.90;;;16.80;99.90;;;;;;6275042;22;20343;-44
2023/09/20 03:38:43;;;;;;;5.78;2.40;;;16.70;99.90;;;;;;6271866;22;20027;-43
2023/09/20 03:41:10;;;;;;;9.00;2.83;;;16.60;99.90;;;;;;6271562;22;20083;-43
2023/09/20 03:43:37;;;;;;;7.03;2.70;;;16.60;99.90;;;;;;6270210;22;20026;-43
2023/09/20 03:46:02;;;;;;;8.95;2.60;;;16.50;99.90;;;;;;6272492;22;20023;-43
2023/09/20 03:48:28;;;;;;;8.00;2.85;;;16.50;99.90;;;;;;6270925;22;20103;-43
2023/09/20 03:50:53;;;;;;;7.40;2.67;;;16.40;99.90;;;;;;6270947;22;20393;-43
2023/09/20 03:53:19;;;;;;;9.02;2.95;;;16.40;99.90;;;;;;6269942;22;20043;-44
2023/09/20 03:55:46;;;;;;;7.60;2.80;;;16.30;99.90;;;;;;6268297;22;20015;-44
2023/09/20 03:58:11;;;;;;;6.72;2.67;;;16.30;99.90;;;;;;6269768;22;20016;-44
2023/09/20 04:00:38;;;;;;;7.22;2.70;;;16.40;99.90;;;;;;6273111;22;20023;-43
2023/09/20 04:03:11;;;;;;;6.78;3.03;;;16.20;99.90;;;;;;6273991;22;20496;-44
2023/09/20 04:05:38;;;;;;;8.27;2.75;;;16.10;99.90;;;;;;6247546;22;20129;-43
2023/09/20 04:08:06;;;;;;;5.10;2.53;;;16.20;99.90;;;;;;6273401;22;20012;-43
2023/09/20 04:10:33;;;;;;;7.93;2.67;;;16.10;99.90;;;;;;6273026;22;20246;-44
2023/09/20 04:12:59;;;;;;;7.43;2.97;;;16.00;99.90;;;;;;6271329;22;20316;-43
2023/09/20 04:15:25;;;;;;;10.52;2.90;;;16.00;99.90;;;;;;6275716;22;20546;-42
2023/09/20 04:17:51;;;;;;;7.15;2.70;;;15.90;99.90;;;;;;6272448;22;20468;-44
2023/09/20 04:20:20;;;;;;;7.75;2.75;;;15.90;99.90;;;;;;6272362;22;20014;-42
2023/09/20 04:22:49;;;;;;;9.90;3.28;;;15.80;99.90;;;;;;6274366;22;20011;-44
2023/09/20 04:25:15;;;;;;;7.75;2.80;;;15.70;99.90;;;;;;6273146;22;20532;-43
2023/09/20 04:27:42;;;;;;;4.60;2.78;;;;;;;;;;6274433;22;20019;-44
2023/09/20 04:30:09;;;;;;;6.78;2.47;;;15.70;99.90;;;;;;6247800;22;20070;-43
2023/09/20 04:32:35;;;;;;;9.63;2.80;;;15.60;99.90;;;;;;6271488;22;20055;-42
2023/09/20 04:35:02;;;;;;;10.33;3.07;;;15.60;99.90;;;;;;6272432;22;20081;-42
2023/09/20 04:37:28;;;;;;;8.37;2.80;;;15.60;99.90;;;;;;6270887;22;20729;-42
2023/09/20 04:39:54;;;;;;;5.78;2.58;;;15.60;99.90;;;;;;6275053;22;20074;-42
2023/09/20 04:42:20;;;;;;;5.38;2.45;;;15.60;99.90;;;;;;6274166;22;20020;-44
2023/09/20 04:44:46;;;;;;;8.18;2.95;;;15.60;99.90;;;;;;6273203;22;20030;-42
2023/09/20 04:47:14;;;;;;;7.38;3.08;;;15.50;99.90;;;;;;6273210;22;20019;-43
2023/09/20 04:49:40;;;;;;;5.57;2.53;;;15.50;99.90;;;;;;6274378;22;20021;-43
2023/09/20 04:52:08;;;;;;;5.47;2.40;;;15.50;99.90;;;;;;6276369;22;20023;-43
2023/09/20 04:54:34;;;;;;;7.93;2.50;;;15.50;99.90;;;;;;6277863;22;20022;-42
2023/09/20 04:57:00;;;;;;;7.25;3.08;;;15.50;99.90;;;;;;6273926;22;20012;-43
2023/09/20 04:59:25;;;;;;;7.43;2.65;;;15.50;99.90;;;;;;6275853;22;20016;-43
2023/09/20 05:01:51;;;;;;;5.18;2.47;;;15.50;99.90;;;;;;6277485;22;20034;-43
2023/09/20 05:04:19;;;;;;;6.03;2.70;;;15.50;99.90;;;;;;6276940;22;20020;-42
2023/09/20 05:06:45;;;;;;;6.28;2.88;;;15.50;99.90;;;;;;6277509;22;20022;-42
2023/09/20 05:09:12;;;;;;;10.10;3.30;;;15.50;99.90;;;;;;6276434;22;20012;-43
2023/09/20 05:11:38;;;;;;;7.72;2.63;;;15.50;99.90;;;;;;6276177;22;20396;-42
2023/09/20 05:14:07;;;;;;;7.30;2.75;;;15.50;99.90;;;;;;6277250;22;20012;-42
2023/09/20 05:16:33;;;;;;;7.65;2.72;;;15.50;99.90;;;;;;6276832;22;20374;-43
2023/09/20 05:18:59;;;;;;;6.68;2.60;;;15.50;99.90;;;;;;6276149;22;20084;-41
2023/09/20 05:21:25;;;;;;;8.32;2.83;;;15.50;99.90;;;;;;6277322;22;20065;-42
2023/09/20 05:23:50;;;;;;;6.50;2.90;;;15.50;99.90;;;;;;6277072;22;20070;-42
2023/09/20 05:26:18;;;;;;;6.85;2.40;;;15.50;99.90;;;;;;6277170;22;20440;-42
2023/09/20 05:28:46;;;;;;;8.52;2.72;;;15.50;99.90;;;;;;6277135;22;20362;-43
2023/09/20 05:31:12;;;;;;;;;;;15.50;99.90;;;;;;6278010;22;20038;-43
2023/09/20 05:33:39;;;;;;;11.65;2.63;;;15.60;99.90;;;;;;6277107;22;20374;-42
2023/09/20 05:36:07;;;;;;;7.13;2.37;;;15.60;99.90;;;;;;6276755;22;20325;-41
2023/09/20 05:38:33;;;;;;;7.55;2.50;;;15.70;99.90;;;;;;6274264;22;20373;-43
2023/09/20 05:40:58;;;;;;;5.82;2.70;;;15.70;99.90;;;;;;6277343;22;20016;-43
2023/09/20 05:43:24;;;;;;;7.07;2.60;;;15.70;99.90;;;;;;6277305;22;20015;-43
2023/09/20 05:45:49;;;;;;;6.05;2.60;;;15.80;99.90;;;;;;6277936;22;20335;-43
2023/09/20 05:48:16;;;;;;;7.20;3.15;;;15.90;99.90;;;;;;6277317;22;20069;-42
2023/09/20 05:50:42;;;;;;;7.28;2.67;;;15.90;99.90;;;;;;6275935;22;20047;-44
2023/09/20 05:53:11;;;;;;;6.72;2.58;;;16.00;99.90;;;;;;6277344;22;20016;-44
2023/09/20 05:55:38;;;;;;;8.50;2.72;;;16.00;99.90;;;;;;6277913;22;20529;-45
2023/09/20 05:58:05;;;;;;;6.37;2.90;;;16.00;99.90;;;;;;6276730;22;20467;-44
2023/09/20 06:00:31;;;;;;;4.97;2.47;;;16.00;99.90;;;;;;6277816;22;20235;-42
2023/09/20 06:02:57;;;;;;;7.60;2.72;;;16.10;99.90;;;;;;6275392;22;20026;-45
2023/09/20 06:05:26;;;;;;;5.85;2.95;;;16.10;99.90;;;;;;6277276;22;20478;-43
2023/09/20 06:07:53;;;;;;;7.25;2.70;;;16.20;99.90;;;;;;6277257;22;20022;-44
2023/09/20 06:10:20;;;;;;;5.38;2.63;;;16.20;99.90;;;;;;6277725;22;20369;-45
2023/09/20 06:12:46;;;;;;;7.00;2.75;;;16.30;99.90;;;;;;6277461;22;20057;-44
2023/09/20 06:15:15;;;;;;;8.00;3.42;;;16.40;99.90;;;;;;6277835;22;20043;-45
2023/09/20 06:17:47;;;;;;;8.40;2.72;;;16.40;99.90;;;;;;6277517;22;20094;-43
2023/09/20 06:20:19;;;;;;;5.15;2.65;;;16.70;99.90;;;;;;6277437;22;20297;-43
2023/09/20 06:22:49;;;;;;;7.40;2.80;;;17.00;99.90;;;;;;6275267;22;20012;-43
2023/09/20 06:25:15;;;;;;;6.70;2.80;;;18.30;99.90;;;;;;6277002;22;20447;-45
2023/09/20 06:27:41;;;;;;;5.45;2.60;;;18.30;99.90;;;;;;6275530;22;20051;-44
2023/09/20 06:30:12;;;;;;;6.63;2.72;;;;;;;;;;6275517;22;20348;-44
2023/09/20 06:32:38;;;;;;;5.53;2.60;;;19.10;99.90;;;;;;6277059;22;20019;-44
2023/09/20 06:35:04;;;;;;;5.05;2.55;;;20.00;99.90;;;;;;6277247;22;20438;-43
2023/09/20 06:37:30;;;;;;;7.22;2.72;;;20.30;99.90;;;;;;6275241;22;20486;-45
2023/09/20 06:39:56;;;;;;;9.00;2.50;;;20.40;99.90;;;;;;6276827;22;20019;-43
2023/09/20 06:42:25;;;;;;;6.75;3.03;;;20.60;99.90;;;;;;6274570;22;20093;-42
2023/09/20 06:44:52;;;;;;;8.40;2.70;;;20.60;99.90;;;;;;6276425;22;20026;-46
2023/09/20 06:47:18;;;;;;;7.82;2.75;;;20.90;99.90;;;;;;6276897;22;20016;-44
2023/09/20 06:49:44;;;;;;;6.10;2.85;;;21.20;99.90;;;;;;6276440;22;20016;-44
2023/09/20 06:52:11;;;;;;;8.57;2.90;;;21.50;99.90;;;;;;6273593;22;20455;-43
2023/09/20 06:54:38;;;;;;;6.93;2.50;;;21.50;99.90;;;;;;6275909;22;20020;-45
2023/09/20 06:57:05;;;;;;;6.07;3.08;;;21.90;99.90;;;;;;6276851;22;20106;-45
2023/09/20 06:59:32;;;;;;;8.38;2.88;;;22.50;99.90;;;;;;6277017;22;20459;-43
2023/09/20 07:02:02;;;;;;;8.82;2.58;;;22.50;99.90;;;;;;6275583;22;20020;-45
2023/09/20 07:04:28;;;;;;;7.88;2.90;;;21.50;99.90;;;;;;6276296;22;20106;-45
2023/09/20 07:06:55;;;;;;;6.80;2.50;;;;;;;;;;6276136;22;20011;-46
2023/09/20 07:09:22;;;;;;;5.25;2.83;;;20.90;99.90;;;;;;6274185;22;20078;-44
2023/09/20 07:11:51;;;;;;;6.40;3.10;;;20.50;99.90;;;;;;6272488;22;20023;-44
2023/09/20 07:14:20;;;;;;;6.28;2.80;;;20.30;99.90;;;;;;6269503;22;20030;-46
2023/09/20 07:16:55;;;;;;;6.18;2.53;;;20.10;99.90;;;;;;6269852;22;20288;-43
2023/09/20 07:19:23;;;;;;;4.07;2.60;;;20.00;99.90;;;;;;6275754;22;20113;-45
2023/09/20 07:21:50;;;;;;;5.25;2.63;;;20.00;99.90;;;;;;6275329;22;20475;-44
2023/09/20 07:24:15;;;;;;;6.93;2.38;;;19.90;99.90;;;;;;6273461;22;20066;-43
2023/09/20 07:26:43;;;;;;;8.77;2.85;;;20.00;99.90;;;;;;6273888;22;20015;-43
2023/09/20 07:29:13;;;;;;;6.72;2.85;;;19.80;99.90;;;;;;6276755;22;20043;-44
2023/09/20 07:31:39;;;;;;;7.88;3.45;;;19.90;99.90;;;;;;6276450;22;20062;-44
2023/09/20 07:34:06;;;;;;;9.23;2.83;;;19.90;99.90;;;;;;6276274;22;20028;-45
2023/09/20 07:36:35;;;;;;;9.15;2.72;;;19.90;99.90;;;;;;6277593;22;20016;-45
2023/09/20 07:39:05;;;;;;;5.65;2.47;;;19.80;99.90;;;;;;6276747;22;20431;-45
2023/09/20 07:41:30;;;;;;;6.60;2.50;;;19.80;99.90;;;;;;6275428;22;20026;-44
2023/09/20 07:43:56;;;;;;;5.13;2.50;;;19.90;99.90;;;;;;6277430;22;20324;-44
2023/09/20 07:46:23;;;;;;;7.55;2.78;;;20.00;99.90;;;;;;6277267;22;20016;-44
2023/09/20 07:48:50;;;;;;;;;;;20.20;99.90;;;;;;6274412;22;20112;-44
2023/09/20 07:51:25;;;;;;;6.07;2.70;;;20.30;99.90;;;;;;6277263;22;20242;-45
2023/09/20 07:53:54;;;;;;;6.60;2.75;;;20.50;99.90;;;;;;6276354;22;20027;-45
2023/09/20 07:56:20;;;;;;;3.67;1.90;;;20.60;99.90;;;;;;6276407;22;20474;-44
2023/09/20 07:58:46;;;;;;;5.55;2.35;;;20.80;99.90;;;;;;6275042;22;20020;-44
2023/09/20 08:01:12;;;;;;;7.30;2.45;;;20.90;99.90;;;;;;6277210;22;20105;-45
2023/09/20 08:03:45;;;;;;;8.32;2.88;;;20.80;99.90;;;;;;6248919;22;20343;-44
2023/09/20 08:06:12;;;;;;;6.05;2.38;;;20.70;99.90;;;;;;6276182;22;20086;-44
2023/09/20 08:08:37;;;;;;;6.10;2.60;;;20.90;99.90;;;;;;6276320;22;20055;-45
2023/09/20 08:11:03;;;;;;;8.18;2.50;;;20.70;99.90;;;;;;6276253;22;20012;-44
2023/09/20 08:13:29;;;;;;;4.93;2.35;;;20.70;99.90;;;;;;6274972;22;20462;-45
2023/09/20 08:15:55;;;;;;;4.75;2.30;;;20.90;99.90;;;;;;6275345;22;20096;-45
2023/09/20 08:21:04;;;;;;;5.55;2.47;;;21.20;99.90;;;;;;6274680;22;20583;-46
2023/09/20 09:02:15;;;;;;;2.78;1.85;;;20.40;99.90;;;;;;6277457;22;20451;-45
2023/09/20 09:04:54;;;;;;;5.68;1.77;;;20.30;99.90;;;;;;6276145;22;20018;-45
2023/09/20 09:07:23;;;;;;;4.35;1.80;;;20.50;99.90;;;;;;6276528;22;20012;-45
2023/09/20 09:09:49;;;;;;;5.20;1.60;;;20.40;99.90;;;;;;6277475;22;20141;-45
2023/09/20 09:12:15;;;;;;;5.43;1.90;;;20.60;99.90;;;;;;6277507;22;20058;-45
2023/09/20 09:14:41;;;;;;;3.05;1.92;;;20.60;99.90;;;;;;6277295;22;20015;-46
2023/09/20 09:17:09;;;;;;;4.45;1.80;;;20.70;99.90;;;;;;6277060;22;20030;-47
2023/09/20 09:19:36;;;;;;;6.55;2.10;;;20.90;99.90;;;;;;6277325;22;20012;-44
2023/09/20 09:22:02;;;;;;;2.65;1.55;;;20.90;99.90;;;;;;6276698;22;20015;-44
2023/09/20 09:24:40;;;;;;;3.10;1.70;;;21.00;99.90;;;;;;6277206;22;20091;-47
2023/09/20 09:27:08;;;;;;;3.50;1.70;;;20.90;99.90;;;;;;6277203;22;20022;-46
2023/09/20 09:29:33;;;;;;;;;;;20.90;99.90;;;;;;6278055;22;20432;-45
2023/09/20 09:32:04;;;;;;;4.03;1.88;;;20.90;99.90;;;;;;6275177;22;19974;-45
2023/09/20 09:34:30;;;;;;;3.00;1.60;;;21.00;99.90;;;;;;6277303;22;20016;-45
2023/09/20 09:36:56;;;;;;;4.28;1.73;;;21.00;99.90;;;;;;6277817;22;20366;-47
2023/09/20 09:39:24;;;;;;;3.20;1.70;;;20.90;99.90;;;;;;6277421;22;20513;-48
2023/09/20 09:41:51;;;;;;;;;;;20.80;99.90;;;;;;6277623;22;20011;-45
2023/09/20 09:44:17;;;;;;;3.70;1.80;;;20.70;99.90;;;;;;6276666;22;19915;-47
2023/09/20 09:46:43;;;;;;;2.85;1.77;;;20.40;99.90;;;;;;6277214;22;20115;-45
2023/09/20 09:49:11;;;;;;;5.22;2.08;;;20.30;99.90;;;;;;6276574;22;20016;-46
2023/09/20 09:51:50;;;;;;;3.80;1.48;;;20.30;99.90;;;;;;6275502;22;20476;-44
2023/09/20 09:54:17;;;;;;;3.03;1.75;;;20.20;99.90;;;;;;6276624;22;20051;-44
2023/09/20 09:56:43;;;;;;;3.53;1.67;;;20.00;99.90;;;;;;6275557;22;20027;-45
2023/09/20 09:59:10;;;;;;;2.55;2.00;;;20.00;99.90;;;;;;6276465;22;20078;-44
2023/09/20 10:01:40;;;;;;;4.07;1.95;;;19.90;99.90;;;;;;6274802;22;20077;-44
2023/09/20 10:04:12;;;;;;;3.92;1.80;;;20.00;99.90;;;;;;6276242;22;20016;-46
2023/09/20 10:07:08;;;;;;;4.03;1.88;;;20.00;99.90;;;;;;6276828;22;20061;-45
2023/09/20 10:09:38;;;;;;;2.25;1.70;;;20.00;99.90;;;;;;6275969;22;20043;-45
2023/09/20 10:12:04;;;;;;;4.82;2.00;;;20.10;99.90;;;;;;6276620;22;20141;-47
2023/09/20 10:14:30;;;;;;;7.10;1.93;;;20.20;99.90;;;;;;6276416;22;20046;-47
2023/09/20 10:16:56;;;;;;;3.28;1.80;;;20.20;99.90;;;;;;6275909;22;20514;-46
2023/09/20 10:19:23;;;;;;;5.18;2.22;;;20.40;99.90;;;;;;6250195;22;20020;-46
2023/09/20 10:22:11;;;;;;;5.30;1.92;;;20.50;99.90;;;;;;6277253;22;20011;-45
2023/09/20 10:24:50;;;;;;;4.43;2.10;;;20.50;99.90;;;;;;6276201;22;20011;-47
2023/09/20 10:27:26;;;;;;;4.28;1.70;;;20.40;99.90;;;;;;6277247;22;20022;-45
2023/09/20 10:30:01;;;;;;;4.15;1.90;;;20.40;99.90;;;;;;6276850;22;20320;-44
2023/09/20 10:32:48;;;;;;;3.85;1.80;;;20.50;99.90;;;;;;6276764;22;20336;-46
2023/09/20 10:35:22;;;;;;;6.43;2.40;;;20.50;99.90;;;;;;6277599;22;20077;-45
2023/09/20 10:38:23;;;;;;;2.65;1.70;;;20.40;99.90;;;;;;6276650;22;20024;-44
2023/09/20 10:40:51;;;;;;;5.10;1.90;;;20.40;99.90;;;;;;6274428;22;20022;-49
2023/09/20 10:43:35;;;;;;;4.65;2.30;;;20.40;99.90;;;;;;6275493;22;20019;-45
2023/09/20 10:46:07;;;;;;;5.57;2.08;;;20.50;99.90;;;;;;6274275;22;20027;-44
2023/09/20 10:48:33;;;;;;;3.42;1.90;;;20.60;99.90;;;;;;6272481;22;20344;-45
2023/09/20 10:50:59;;;;;;;4.75;2.08;;;20.70;99.90;;;;;;6276056;22;20012;-46
2023/09/20 10:53:52;;;;;;;5.45;1.73;;;20.80;99.90;;;;;;6274137;22;20016;-46
2023/09/20 10:56:43;;;;;;;5.28;2.13;;;21.00;99.90;;;;;;6248598;22;20032;-46
2023/09/20 10:59:16;;;;;;;6.60;2.10;;;21.10;99.90;;;;;;6276004;22;20073;-47
2023/09/20 11:01:53;;;;;;;5.13;1.95;;;21.10;99.90;;;;;;6276127;22;20014;-46
2023/09/20 11:04:19;;;;;;;4.55;2.13;;;21.20;99.90;;;;;;6275412;22;20023;-44
2023/09/20 11:06:49;;;;;;;3.78;1.80;;;21.20;99.90;;;;;;6275467;22;20039;-45
2023/09/20 11:09:15;;;;;;;4.07;2.20;;;21.50;99.90;;;;;;6273883;22;20370;-45
2023/09/20 11:11:42;;;;;;;4.88;2.05;;;21.30;99.90;;;;;;6274817;22;20019;-45
2023/09/20 11:14:09;;;;;;;5.85;2.13;;;21.30;99.90;;;;;;6275207;22;20012;-46
2023/09/20 11:16:36;;;;;;;3.08;1.90;;;21.60;99.90;;;;;;6273955;22;20092;-44
2023/09/20 11:19:02;;;;;;;8.07;2.78;;;21.70;99.90;;;;;;6274855;22;20043;-42
2023/09/20 11:21:27;;;;;;;5.38;1.88;;;21.70;99.90;;;;;;6248564;22;20514;-43
2023/09/20 11:23:53;;;;;;;5.18;2.20;;;21.60;99.90;;;;;;6273593;22;20351;-43
2023/09/20 11:26:29;;;;;;;2.10;1.45;;;21.60;99.90;;;;;;6273635;22;20023;-43
2023/09/20 11:28:56;;;;;;;5.00;2.20;;;21.70;99.90;;;;;;6275863;22;20030;-45
2023/09/20 11:31:30;;;;;;;4.88;2.10;;;21.80;99.90;;;;;;6273988;22;20080;-45
2023/09/20 11:33:58;;;;;;;3.80;2.40;;;21.80;99.90;;;;;;6272318;22;20066;-47
2023/09/20 11:36:25;;;;;;;4.15;2.40;;;21.70;99.90;;;;;;6275191;22;20466;-41
2023/09/20 11:38:51;;;;;;;6.80;2.35;;;21.80;99.90;;;;;;6275140;22;20418;-46
2023/09/20 11:41:17;;;;;;;7.32;2.25;;;21.80;99.90;;;;;;6275382;22;20375;-43
2023/09/20 11:43:45;;;;;;;4.97;2.45;;;21.90;99.90;;;;;;6275735;22;20021;-43
2023/09/20 11:46:10;;;;;;;;;;;22.00;99.90;;;;;;6273164;22;20034;-44
2023/09/20 11:48:37;;;;;;;3.72;2.10;;;22.10;99.90;;;;;;6272569;22;19946;-45
2023/09/20 11:51:04;;;;;;;5.53;2.55;;;22.40;99.90;;;;;;6275289;22;20012;-42
2023/09/20 11:53:31;;;;;;;5.03;2.88;;;22.30;99.90;;;;;;6273786;22;20022;-45
2023/09/20 11:56:00;;;;;;;4.97;2.55;;;22.40;99.90;;;;;;6275223;22;20015;-46
2023/09/20 11:58:32;;;;;;;5.50;2.47;;;22.60;99.90;;;;;;6274537;22;20012;-42
2023/09/20 12:00:58;;;;;;;5.28;2.42;;;22.60;99.90;;;;;;6277184;22;20012;-43
2023/09/20 12:03:23;;;;;;;4.22;2.20;;;22.50;99.90;;;;;;6277094;22;20097;-44
2023/09/20 12:05:49;;;;;;;4.90;2.80;;;22.40;99.90;;;;;;6276568;22;20019;-44
2023/09/20 12:08:15;;;;;;;5.85;2.00;;;22.60;99.90;;;;;;6276147;22;20007;-42
2023/09/20 12:10:41;;;;;;;2.25;2.05;;;22.50;99.90;;;;;;6275451;22;20091;-46
2023/09/20 12:13:07;;;;;;;3.63;2.47;;;22.30;99.90;;;;;;6276406;22;20399;-43
2023/09/20 12:15:37;;;;;;;7.30;2.53;;;22.20;99.90;;;;;;6274597;22;20020;-43
2023/09/20 12:18:03;;;;;;;3.35;1.80;;;22.50;99.90;;;;;;6276231;22;20016;-45
2023/09/20 12:20:29;;;;;;;4.35;2.00;;;22.60;99.90;;;;;;6248866;22;20016;-46
2023/09/20 12:23:01;;;;;;;4.50;2.50;;;22.50;99.90;;;;;;6274132;22;20030;-45
2023/09/20 12:25:26;;;;;;;4.45;2.20;;;22.50;99.90;;;;;;6276506;22;20011;-46
2023/09/20 12:27:52;;;;;;;5.07;2.30;;;22.60;99.90;;;;;;6276276;22;20111;-49
2023/09/20 12:30:18;;;;;;;4.95;2.00;;;;;;;;;;6276356;22;20015;-45
2023/09/20 12:32:44;;;;;;;8.70;3.08;;;23.00;99.90;;;;;;6274030;22;20016;-45
2023/09/20 12:35:10;;;;;;;4.97;2.00;;;23.10;99.90;;;;;;6276299;22;20008;-47
2023/09/20 12:37:36;;;;;;;4.88;1.95;;;23.10;99.90;;;;;;6276343;22;20011;-45
2023/09/20 12:40:08;;;;;;;8.15;2.30;;;23.40;99.90;;;;;;6274415;22;20012;-48
2023/09/20 12:42:38;;;;;;;2.85;1.65;;;23.50;99.90;;;;;;6248845;22;20008;-48
2023/09/20 12:45:07;;;;;;;3.03;1.75;;;23.70;99.90;;;;;;6276284;22;20098;-45
2023/09/20 12:47:35;;;;;;;4.13;1.80;;;23.80;99.90;;;;;;6275212;22;20019;-45
2023/09/20 12:50:01;;;;;;;5.57;2.13;;;23.80;99.90;;;;;;6275947;22;20094;-46
2023/09/20 12:52:27;;;;;;;5.05;1.70;;;23.90;99.90;;;;;;6276318;22;20374;-45
2023/09/20 12:54:53;;;;;;;6.15;1.90;;;24.00;99.90;;;;;;6275719;22;20091;-43
2023/09/20 12:57:20;;;;;;;2.08;1.67;;;24.00;99.90;;;;;;6275802;22;20024;-44
2023/09/20 12:59:46;;;;;;;;;;;24.00;99.90;;;;;;6276657;22;20087;-42
2023/09/20 13:02:11;;;;;;;3.67;1.75;;;24.10;99.90;;;;;;6275933;22;19947;-43
2023/09/20 13:04:37;;;;;;;4.78;1.80;;;23.90;99.90;;;;;;6276216;22;20015;-43
2023/09/20 13:07:02;;;;;;;4.63;1.60;;;23.90;99.90;;;;;;6276338;22;20065;-44
2023/09/20 13:09:29;;;;;;;3.45;1.70;;;24.00;99.90;;;;;;6276055;22;20019;-43
2023/09/20 13:11:54;;;;;;;4.35;1.70;;;24.10;99.90;;;;;;6277040;22;20012;-43
2023/09/20 13:14:20;;;;;;;4.13;2.17;;;24.20;99.90;;;;;;6277832;22;20011;-43
2023/09/20 13:16:49;;;;;;;2.67;1.58;;;24.20;99.90;;;;;;6277958;22;20023;-42
2023/09/20 13:19:18;;;;;;;3.60;1.60;;;24.30;99.90;;;;;;6278013;22;20047;-47
2023/09/20 13:21:44;;;;;;;2.38;1.50;;;24.20;99.90;;;;;;6276145;22;20030;-42
2023/09/20 13:24:11;;;;;;;4.40;1.50;;;24.20;99.90;;;;;;6277728;22;20026;-42
2023/09/20 13:26:40;;;;;;;4.38;1.67;;;24.00;99.90;;;;;;6278194;22;20027;-42
2023/09/20 13:29:06;;;;;;;4.85;1.45;;;23.90;99.90;;;;;;6278002;22;20023;-43
2023/09/20 13:31:32;;;;;;;2.78;1.60;;;23.80;99.90;;;;;;6277532;22;20016;-43
2023/09/20 13:34:00;;;;;;;2.70;1.60;;;23.80;99.90;;;;;;6278102;22;20068;-43
2023/09/20 13:36:26;;;;;;;4.40;1.55;;;24.00;99.90;;;;;;6278426;22;20142;-42